Time;durP1;ratioP1;P1;durP2;ratioP2;P2;SDS_P1;SDS_P2;PMS_P1;PMS_P2;Temp;Humidity;BMP_temperature;BMP_pressure;BME280_temperature;BME280_humidity;BME280_pressure;Samples;Min_cycle;Max_cycle;Signal;HPM_P1;HPM_P2
2022/10/02 00:05:25;;;;;;;8.25;3.12;;;;;;;10.35;100.00;98480.41;4428524;79;21539;-85
2022/10/02 00:11:44;;;;;;;4.47;2.55;;;;;;;10.32;100.00;98492.13;4426824;79;20997;-84
2022/10/02 00:17:48;;;;;;;3.72;2.62;;;;;;;10.32;100.00;98501.70;4418027;79;21048;-85
2022/10/02 00:23:59;;;;;;;6.58;3.40;;;;;;;10.35;100.00;98507.16;4422210;79;20984;-85
2022/10/02 00:30:02;;;;;;;3.75;2.47;;;;;;;10.37;100.00;98510.30;4416521;79;21028;-85
2022/10/02 00:36:35;;;;;;;5.62;2.60;;;;;;;10.40;100.00;98499.16;4418635;79;20983;-86
2022/10/02 00:42:56;;;;;;;16.97;3.37;;;;;;;10.43;100.00;98503.29;4418717;79;21029;-84
2022/10/02 00:49:38;;;;;;;5.00;2.80;;;;;;;10.47;100.00;98506.05;4438458;79;21098;-84
2022/10/02 00:56:03;;;;;;;3.75;2.52;;;;;;;10.48;100.00;98517.97;4443079;79;21038;-84
2022/10/02 01:02:27;;;;;;;7.53;3.10;;;;;;;10.51;100.00;98512.30;4448932;79;20966;-84
2022/10/02 01:08:28;;;;;;;7.97;3.17;;;;;;;10.56;100.00;98524.25;4450751;78;20988;-84
2022/10/02 01:14:38;;;;;;;5.28;2.98;;;;;;;10.56;100.00;98526.98;4456808;78;21016;-85
2022/10/02 01:20:50;;;;;;;4.55;2.30;;;;;;;10.57;100.00;98529.94;4446135;79;20964;-85
2022/10/02 01:26:52;;;;;;;6.05;2.20;;;;;;;10.59;100.00;98536.59;4450971;78;21002;-85
2022/10/02 01:32:57;;;;;;;5.40;2.25;;;;;;;10.59;100.00;98535.80;4456354;78;21056;-84
2022/10/02 01:38:59;;;;;;;5.30;1.65;;;;;;;10.58;100.00;98544.61;4458037;78;21006;-84
2022/10/02 01:45:04;;;;;;;3.70;1.92;;;;;;;10.59;100.00;98559.06;4452406;78;22325;-86
2022/10/02 01:51:53;;;;;;;3.92;2.12;;;;;;;10.60;100.00;98579.20;4388107;79;21035;-85
2022/10/02 01:58:24;;;;;;;8.05;3.10;;;;;;;10.61;100.00;98577.26;4295072;81;21696;-85
2022/10/02 02:04:38;;;;;;;6.78;2.58;;;;;;;10.60;100.00;98573.72;4162407;82;21055;-84
2022/10/02 02:11:09;;;;;;;6.50;2.67;;;;;;;10.61;100.00;98585.47;4233106;82;21103;-85
2022/10/02 02:17:17;;;;;;;3.90;2.50;;;;;;;10.59;100.00;98583.69;4079034;82;27259;-85
2022/10/02 02:23:24;;;;;;;7.08;2.70;;;;;;;10.61;100.00;98589.58;4048419;87;21054;-85
2022/10/02 02:29:28;;;;;;;;;;;;;;;10.61;100.00;98593.11;4052165;87;21465;-85
2022/10/02 02:35:43;;;;;;;4.75;2.80;;;;;;;10.62;100.00;98593.88;4151451;85;20144;-85
2022/10/02 02:41:53;;;;;;;8.23;3.40;;;;;;;10.61;100.00;98601.31;4149002;85;21039;-85
2022/10/02 02:48:02;;;;;;;3.98;2.72;;;;;;;10.61;100.00;98606.80;4035095;86;21111;-85
2022/10/02 02:54:24;;;;;;;5.00;3.42;;;;;;;10.61;100.00;98618.31;4036626;87;21043;-85
2022/10/02 03:00:25;;;;;;;5.67;2.90;;;;;;;10.59;100.00;98624.75;3965880;85;43648;-84
2022/10/02 03:06:44;;;;;;;4.33;2.60;;;;;;;10.60;100.00;98629.84;3865926;89;21547;-85
2022/10/02 03:13:10;;;;;;;4.80;2.95;;;;;;;10.62;100.00;98638.45;3928367;88;21654;-85
2022/10/02 03:19:32;;;;;;;4.63;3.33;;;;;;;10.63;100.00;98638.65;3932102;89;21043;-85
2022/10/02 03:25:59;;;;;;;5.65;3.35;;;;;;;10.64;100.00;98633.39;3934956;89;21455;-85
2022/10/02 03:32:04;;;;;;;5.37;3.60;;;;;;;10.63;100.00;98641.39;3872862;89;22081;-84
2022/10/02 03:38:10;;;;;;;6.45;3.65;;;;;;;10.59;100.00;98637.86;3905880;89;21023;-85
2022/10/02 03:44:12;;;;;;;5.00;3.10;;;;;;;10.59;100.00;98638.43;3934774;88;21138;-84
2022/10/02 03:50:14;;;;;;;6.47;3.00;;;;;;;10.57;100.00;98651.13;3941532;89;22243;-85
2022/10/02 03:56:41;;;;;;;6.00;3.05;;;;;;;10.57;100.00;98663.45;3943022;88;21576;-84
2022/10/02 04:02:57;;;;;;;3.50;2.97;;;;;;;10.58;100.00;98662.30;3945082;89;21453;-84
2022/10/02 04:09:13;;;;;;;7.13;3.23;;;;;;;10.58;100.00;98674.62;3946893;89;21757;-84
2022/10/02 04:15:31;;;;;;;4.97;3.25;;;;;;;10.59;100.00;98665.80;3940705;88;21073;-85
2022/10/02 04:21:44;;;;;;;5.37;3.10;;;;;;;10.66;100.00;98682.28;3945440;89;21185;-84
2022/10/02 04:27:57;;;;;;;10.13;3.50;;;;;;;10.67;100.00;98681.90;3943963;89;21129;-84
2022/10/02 04:34:02;;;;;;;5.50;3.20;;;;;;;10.68;100.00;98689.53;3950925;88;21636;-85
2022/10/02 04:40:49;;;;;;;4.80;2.50;;;;;;;10.70;100.00;98701.66;3947242;88;21695;-84
2022/10/02 04:47:13;;;;;;;5.75;2.52;;;;;;;10.70;100.00;98704.41;3966066;88;21144;-86
2022/10/02 04:53:24;;;;;;;5.17;2.92;;;;;;;10.74;100.00;98724.96;3944993;89;21061;-86
2022/10/02 05:06:09;;;;;;;6.22;2.77;;;;;;;10.77;100.00;98737.88;3969532;87;21098;-85
2022/10/02 05:12:35;;;;;;;5.30;2.75;;;;;;;10.80;100.00;98743.96;3925967;89;21041;-85
2022/10/02 05:18:46;;;;;;;6.10;2.60;;;;;;;10.83;100.00;98756.89;3991471;87;21031;-86
2022/10/02 05:25:16;;;;;;;2.42;2.20;;;;;;;10.86;100.00;98758.86;3959365;88;22050;-84
2022/10/02 05:31:34;;;;;;;7.28;2.47;;;;;;;10.88;100.00;98768.25;3961013;87;21029;-85
2022/10/02 05:37:52;;;;;;;11.28;2.90;;;;;;;10.90;100.00;98771.98;3967100;87;21048;-85
2022/10/02 05:44:17;;;;;;;4.45;2.40;;;;;;;10.94;100.00;98786.50;3965740;87;21643;-84
2022/10/02 05:50:27;;;;;;;7.62;2.67;;;;;;;10.98;100.00;98787.29;3959637;87;21025;-85
2022/10/02 05:56:39;;;;;;;5.70;3.00;;;;;;;11.01;100.00;98794.16;3960598;87;21090;-84
2022/10/02 06:03:30;;;;;;;4.15;2.58;;;;;;;11.04;100.00;98808.47;3939775;88;21100;-85
2022/10/02 06:09:45;;;;;;;4.25;2.42;;;;;;;11.07;100.00;98811.80;3991773;87;22273;-85
2022/10/02 06:16:12;;;;;;;6.15;2.40;;;;;;;11.10;100.00;98822.60;4002908;87;21524;-85
2022/10/02 06:22:21;;;;;;;5.58;2.45;;;;;;;11.13;100.00;98826.71;4015415;86;76565;-86
2022/10/02 06:28:42;;;;;;;8.83;3.10;;;;;;;11.18;100.00;98827.53;4053659;87;20999;-85
2022/10/02 06:34:44;;;;;;;9.95;2.98;;;;;;;11.26;100.00;98849.09;4065162;87;21463;-84
2022/10/02 06:45:41;;;;;;;5.45;2.80;;;;;;;11.51;100.00;98861.59;4651942;74;22737;-86
2022/10/02 06:52:11;;;;;;;8.93;2.83;;;;;;;11.55;100.00;98865.13;4510393;76;21015;-85
2022/10/02 06:58:54;;;;;;;7.65;2.58;;;;;;;11.58;100.00;98868.46;4567320;76;21004;-85
2022/10/02 07:05:30;;;;;;;5.92;2.65;;;;;;;11.68;100.00;98871.89;4437862;77;21015;-85
2022/10/02 07:12:10;;;;;;;7.47;2.60;;;;;;;11.75;100.00;98874.64;4563273;76;21004;-86
2022/10/02 07:18:45;;;;;;;4.22;2.60;;;;;;;11.78;100.00;98885.64;4415321;79;21506;-86
2022/10/02 07:25:10;;;;;;;5.20;2.40;;;;;;;11.85;100.00;98889.00;4360268;80;20967;-85
2022/10/02 07:31:54;;;;;;;8.35;2.40;;;;;;;11.96;100.00;98890.63;4471774;77;21393;-86
2022/10/02 07:38:53;;;;;;;9.10;2.62;;;;;;;12.06;100.00;98895.34;4459143;77;20952;-85
2022/10/02 07:45:34;;;;;;;4.85;2.25;;;;;;;12.14;100.00;98893.41;4544058;76;21883;-86
2022/10/02 07:51:58;;;;;;;6.67;2.90;;;;;;;12.21;100.00;98893.44;4567744;76;21016;-87
2022/10/02 07:58:10;;;;;;;4.47;1.87;;;;;;;12.29;100.00;98887.56;4556871;76;21071;-86
2022/10/02 08:04:28;;;;;;;6.25;2.08;;;;;;;12.36;100.00;98888.17;4540098;76;21043;-85
2022/10/02 08:11:00;;;;;;;6.37;2.12;;;;;;;12.68;100.00;98887.66;4524933;76;20952;-87
2022/10/02 08:17:26;;;;;;;6.78;2.20;;;;;;;12.85;100.00;98885.50;4484434;77;21039;-86
2022/10/02 08:23:39;;;;;;;3.95;1.70;;;;;;;12.90;100.00;98883.75;4558778;76;21016;-85
2022/10/02 08:29:58;;;;;;;5.00;1.75;;;;;;;12.90;100.00;98885.12;4556167;76;21006;-87
2022/10/02 08:36:46;;;;;;;4.55;1.85;;;;;;;12.98;100.00;98885.31;4536273;76;21030;-85
2022/10/02 08:43:45;;;;;;;4.87;2.12;;;;;;;13.21;100.00;98871.18;4554329;76;21066;-86
2022/10/02 08:50:46;;;;;;;5.80;1.60;;;;;;;14.41;100.00;98872.94;4551004;76;21004;-86
2022/10/02 08:57:16;;;;;;;13.85;3.77;;;;;;;15.14;100.00;98862.69;4597429;76;21040;-85
2022/10/02 09:04:08;;;;;;;8.48;2.40;;;;;;;14.88;100.00;98861.15;4589823;77;20967;-85
2022/10/02 09:10:42;;;;;;;12.35;1.95;;;;;;;14.55;100.00;98860.44;4477622;76;20946;-86
2022/10/02 09:23:44;;;;;;;4.67;1.47;;;;;;;15.02;100.00;98862.41;4377290;79;21030;-86
2022/10/02 09:30:20;;;;;;;6.40;1.47;;;;;;;15.93;100.00;98851.05;4383994;79;20972;-86
2022/10/02 09:36:44;;;;;;;6.25;1.47;;;;;;;16.32;100.00;98841.02;4266985;82;21004;-86
2022/10/02 09:43:10;;;;;;;3.95;1.22;;;;;;;16.13;100.00;98843.68;4294984;81;21706;-85
2022/10/02 09:49:43;;;;;;;4.40;1.43;;;;;;;15.41;98.89;98853.23;4305733;81;21661;-85
2022/10/02 09:56:39;;;;;;;4.47;1.32;;;;;;;14.78;99.39;98855.15;4177190;82;21440;-86
2022/10/02 10:03:23;;;;;;;6.75;2.00;;;;;;;14.46;98.72;98843.56;4194586;82;21525;-86
2022/10/02 10:09:48;;;;;;;4.90;1.77;;;;;;;14.55;99.66;98847.44;4127512;82;21045;-85
2022/10/02 10:16:30;;;;;;;7.08;1.52;;;;;;;14.85;100.00;98836.58;4386343;79;20956;-86
2022/10/02 10:23:05;;;;;;;4.75;1.70;;;;;;;16.48;100.00;98826.61;4330256;79;21058;-85
2022/10/02 10:29:45;;;;;;;6.00;1.67;;;;;;;17.43;97.98;98822.23;4374211;79;21558;-85
2022/10/02 10:50:31;;;;;;;4.10;1.35;;;;;;;16.55;92.56;98816.23;4276173;81;21003;-85
2022/10/02 10:57:03;;;;;;;5.67;1.50;;;;;;;16.28;92.60;98820.18;4195261;83;20992;-84
2022/10/02 11:03:29;;;;;;;3.52;1.20;;;;;;;15.91;91.63;98814.78;4274933;81;21104;-85
2022/10/02 11:09:58;;;;;;;2.65;1.00;;;;;;;15.73;92.07;98821.11;4174643;82;21025;-86
2022/10/02 11:16:26;;;;;;;;;;;;;;;15.69;90.86;98804.00;4209196;82;21054;-85
2022/10/02 11:23:12;;;;;;;5.37;1.30;;;;;;;15.84;91.18;98803.83;4204812;82;20117;-85
2022/10/02 11:30:03;;;;;;;3.40;0.98;;;;;;;15.78;91.60;98797.20;4206690;82;20995;-85
2022/10/02 11:36:26;;;;;;;4.35;1.27;;;;;;;15.71;90.32;98795.31;4134266;82;21052;-86
2022/10/02 11:42:54;;;;;;;3.67;1.20;;;;;;;15.78;90.18;98796.61;4272902;81;21064;-84
2022/10/02 11:49:26;;;;;;;4.37;1.52;;;;;;;15.75;89.17;98798.03;4160829;81;21031;-85
2022/10/02 11:55:49;;;;;;;4.25;1.02;;;;;;;15.73;89.31;98787.41;4213077;83;21031;-84
2022/10/02 12:02:08;;;;;;;6.97;1.60;;;;;;;15.62;89.75;98774.34;4225456;82;21023;-86
2022/10/02 12:08:37;;;;;;;6.60;1.60;;;;;;;15.50;89.05;98788.07;4226102;82;21520;-85
2022/10/02 12:14:55;;;;;;;5.45;1.55;;;;;;;15.37;89.31;98775.20;4289140;81;21023;-86
2022/10/02 12:27:52;;;;;;;7.50;2.15;;;;;;;14.96;90.26;98772.50;4184643;82;21025;-86
2022/10/02 12:34:27;;;;;;;3.80;1.37;;;;;;;14.76;89.53;98789.42;4359001;79;21022;-85
2022/10/02 12:40:42;;;;;;;4.50;1.57;;;;;;;14.30;90.73;98775.84;4347322;79;21101;-85
2022/10/02 12:47:25;;;;;;;8.18;1.70;;;;;;;14.27;92.26;98761.51;4367156;79;21003;-87
2022/10/02 12:54:06;;;;;;;4.60;1.87;;;;;;;14.24;91.91;98756.20;4379194;80;21002;-86
2022/10/02 13:00:14;;;;;;;3.50;1.70;;;;;;;14.36;92.88;98739.19;4371563;80;21464;-86
2022/10/02 13:13:57;;;;;;;3.42;1.50;;;;;;;14.87;91.94;98718.45;4315545;81;20996;-86
2022/10/02 13:20:40;;;;;;;3.47;1.42;;;;;;;15.19;90.57;98722.25;4286205;81;21045;-86
2022/10/02 13:26:55;;;;;;;5.87;1.57;;;;;;;15.32;88.91;98710.25;4282502;81;21001;-86
2022/10/02 13:33:11;;;;;;;3.90;1.50;;;;;;;15.27;88.91;98702.44;4259365;81;20999;-85
2022/10/02 13:39:49;;;;;;;6.43;1.60;;;;;;;15.24;88.57;98705.23;4200619;82;21027;-85
2022/10/02 13:53:22;;;;;;;6.03;2.02;;;;;;;15.32;86.48;98690.95;4209831;82;21044;-85
2022/10/02 13:59:50;;;;;;;9.30;1.77;;;;;;;15.30;86.41;98681.55;4240137;82;20973;-86
2022/10/02 14:06:09;;;;;;;7.80;2.22;;;;;;;15.18;86.13;98674.59;4212262;82;21550;-86
2022/10/02 14:12:47;;;;;;;9.83;2.62;;;;;;;15.14;86.43;98672.45;4177707;83;21086;-86
2022/10/02 14:19:33;;;;;;;6.25;1.75;;;;;;;15.12;86.82;98674.07;4205159;82;21104;-86
2022/10/02 14:26:14;;;;;;;5.22;1.60;;;;;;;15.16;86.70;98674.83;4196753;82;21888;-86
2022/10/02 14:32:49;;;;;;;5.70;1.90;;;;;;;15.21;86.30;98679.86;4212573;82;21569;-85
2022/10/02 14:39:11;;;;;;;3.05;1.55;;;;;;;15.18;85.81;98669.07;4222078;82;21016;-85
2022/10/02 14:45:50;;;;;;;6.40;1.42;;;;;;;15.16;86.20;98660.42;4203177;82;21504;-85
2022/10/02 14:52:39;;;;;;;2.85;1.25;;;;;;;15.09;86.74;98661.91;4171739;84;20993;-85
2022/10/02 14:58:52;;;;;;;6.47;2.12;;;;;;;15.02;86.34;98646.81;4239224;82;21055;-84
2022/10/02 15:05:09;;;;;;;7.87;2.27;;;;;;;14.91;86.32;98654.42;4242956;82;21000;-84
2022/10/02 15:11:25;;;;;;;3.42;2.08;;;;;;;14.90;86.36;98650.70;4211614;82;21001;-86
2022/10/02 15:18:16;;;;;;;4.58;2.02;;;;;;;14.77;86.29;98652.45;4225949;82;21061;-84
2022/10/02 15:24:45;;;;;;;4.30;1.77;;;;;;;14.58;86.37;98647.53;4155108;82;21058;-84
2022/10/02 15:30:56;;;;;;;5.10;1.72;;;;;;;14.37;87.03;98648.52;4154425;84;21003;-85
2022/10/02 15:37:27;;;;;;;5.58;1.95;;;;;;;14.23;87.21;98658.26;4158815;84;22116;-85
2022/10/02 15:43:52;;;;;;;5.22;2.55;;;;;;;14.12;87.94;98658.36;4141109;84;21003;-85
2022/10/02 15:50:21;;;;;;;8.85;4.80;;;;;;;13.97;87.99;98647.84;4134833;84;21921;-84
2022/10/02 15:56:34;;;;;;;8.00;4.70;;;;;;;13.87;88.76;98655.02;4126124;85;21026;-84
2022/10/02 16:02:56;;;;;;;10.72;5.17;;;;;;;13.75;89.07;98652.73;4150605;84;21619;-85
2022/10/02 16:09:23;;;;;;;9.83;5.10;;;;;;;13.72;89.15;98651.37;4149586;84;21599;-85
2022/10/02 16:15:55;;;;;;;7.03;3.98;;;;;;;13.67;89.34;98652.58;4149781;84;21094;-84
2022/10/02 16:22:45;;;;;;;9.58;3.27;;;;;;;13.64;89.37;98659.51;4308513;79;21022;-85
2022/10/02 16:29:27;;;;;;;4.78;2.52;;;;;;;13.53;89.18;98667.80;4341505;80;20967;-84
2022/10/02 16:36:01;;;;;;;11.18;5.28;;;;;;;13.40;89.13;98673.59;4336048;80;21035;-86
2022/10/02 16:42:43;;;;;;;12.40;5.17;;;;;;;13.14;89.49;98714.55;4375567;80;21511;-85
2022/10/02 16:49:18;;;;;;;11.28;4.65;;;;;;;12.78;90.80;98706.19;4339916;80;21010;-86
2022/10/02 16:55:46;;;;;;;9.55;4.10;;;;;;;12.48;93.83;98703.89;4349098;80;21005;-85
2022/10/02 17:01:53;;;;;;;13.72;5.37;;;;;;;12.42;94.45;98692.50;4371319;80;22026;-85
2022/10/02 17:08:06;;;;;;;9.28;5.60;;;;;;;12.13;95.46;98695.66;4385207;80;20968;-84
2022/10/02 17:14:30;;;;;;;9.68;5.40;;;;;;;12.04;95.96;98689.17;4371288;80;20967;-85
2022/10/02 17:20:43;;;;;;;17.15;9.25;;;;;;;12.00;97.20;98705.44;4258428;81;21007;-85
2022/10/02 17:27:13;;;;;;;8.60;5.80;;;;;;;11.85;98.05;98687.41;4410325;80;20984;-86
2022/10/02 17:33:21;;;;;;;13.05;7.28;;;;;;;11.91;99.21;98696.24;4342883;79;20960;-86
2022/10/02 17:40:00;;;;;;;17.00;11.15;;;;;;;11.85;99.63;98686.84;4394796;79;20984;-86
2022/10/02 17:46:51;;;;;;;16.90;7.33;;;;;;;11.85;100.00;98656.67;4377418;79;20982;-85
2022/10/02 18:00:18;;;;;;;11.18;6.35;;;;;;;11.59;100.00;98645.25;4205659;82;21990;-85
2022/10/02 18:06:25;;;;;;;13.33;8.23;;;;;;;11.52;100.00;98650.70;4245815;82;20974;-85
2022/10/02 18:12:41;;;;;;;15.23;9.05;;;;;;;11.43;100.00;98644.25;4401013;80;21831;-85
2022/10/02 18:19:05;;;;;;;15.43;9.85;;;;;;;11.45;100.00;98635.63;4357903;79;21014;-84
2022/10/02 18:25:33;;;;;;;15.60;9.25;;;;;;;11.51;100.00;98638.19;4369726;79;21019;-84
2022/10/02 18:32:29;;;;;;;15.93;9.08;;;;;;;11.49;100.00;98632.30;4361238;79;20992;-85
2022/10/02 18:38:46;;;;;;;13.55;8.35;;;;;;;11.51;100.00;98646.41;4390905;81;20988;-85
2022/10/02 18:44:53;;;;;;;13.70;8.90;;;;;;;11.47;100.00;98634.06;4226825;78;9999929;-85
2022/10/02 18:51:13;;;;;;;;;;;;;;;11.40;100.00;98643.63;4375098;79;20965;-85
2022/10/02 18:57:37;;;;;;;16.52;9.88;;;;;;;11.13;100.00;98640.42;4360451;79;20926;-84
2022/10/02 19:04:00;;;;;;;15.55;9.28;;;;;;;10.92;100.00;98640.36;4374615;81;20996;-85
2022/10/02 19:10:30;;;;;;;19.05;9.73;;;;;;;10.88;100.00;98638.78;4322261;82;21003;-83
2022/10/02 19:16:32;;;;;;;12.58;7.85;;;;;;;10.89;100.00;98632.92;4344391;79;21122;-85
2022/10/02 19:22:37;;;;;;;19.73;8.60;;;;;;;11.01;100.00;98648.20;4360146;79;21043;-85
2022/10/02 19:28:45;;;;;;;14.68;7.58;;;;;;;10.99;100.00;98674.61;4329872;80;20960;-84
2022/10/02 19:35:02;;;;;;;10.32;4.90;;;;;;;10.96;100.00;98699.27;4387123;79;20995;-84
2022/10/02 19:41:11;;;;;;;7.77;4.57;;;;;;;10.90;100.00;98707.63;4226454;80;9999930;-84
2022/10/02 19:47:28;;;;;;;5.87;3.33;;;;;;;10.86;100.00;98709.57;4376707;79;21844;-84
2022/10/02 19:53:43;;;;;;;7.17;3.67;;;;;;;10.84;100.00;98714.64;4362702;79;20957;-84
2022/10/02 19:59:51;;;;;;;5.78;2.20;;;;;;;10.80;100.00;98713.84;4359520;79;21971;-84
2022/10/02 20:05:58;;;;;;;4.33;2.50;;;;;;;10.70;100.00;98723.56;4360238;79;20979;-83
2022/10/02 20:12:03;;;;;;;;;;;;;;;10.62;100.00;98722.52;4373957;79;21547;-83
2022/10/02 20:18:06;;;;;;;4.72;1.92;;;;;;;10.56;100.00;98728.95;4292186;80;20132;-83
2022/10/02 20:24:22;;;;;;;5.20;1.67;;;;;;;10.51;100.00;98721.66;4366702;79;21027;-84
2022/10/02 20:30:44;;;;;;;3.67;1.80;;;;;;;10.46;100.00;98719.30;4409250;79;21015;-84
2022/10/02 20:36:58;;;;;;;4.58;2.08;;;;;;;10.41;100.00;98730.59;4388980;80;21028;-83
2022/10/02 20:43:09;;;;;;;5.55;2.33;;;;;;;10.37;100.00;98737.98;4376965;79;21500;-82
2022/10/02 20:49:41;;;;;;;3.83;2.25;;;;;;;10.33;100.00;98743.44;4380344;79;21104;-83
2022/10/02 20:56:10;;;;;;;8.48;2.83;;;;;;;10.38;100.00;98749.14;4367687;79;21122;-83
2022/10/02 21:03:00;;;;;;;6.65;3.20;;;;;;;10.36;100.00;98752.83;4372088;79;20991;-83
2022/10/02 21:09:37;;;;;;;5.80;3.65;;;;;;;10.31;100.00;98752.60;4384380;79;21031;-83
2022/10/02 21:16:10;;;;;;;5.17;3.47;;;;;;;10.33;100.00;98759.06;4379561;79;22343;-83
2022/10/02 21:22:24;;;;;;;10.25;3.33;;;;;;;10.29;100.00;98748.69;4387545;79;21411;-83
2022/10/02 21:28:49;;;;;;;7.60;3.72;;;;;;;10.25;100.00;98749.22;4356883;79;21426;-83
2022/10/02 21:35:05;;;;;;;6.83;4.22;;;;;;;10.15;100.00;98757.53;4374634;79;20948;-83
2022/10/02 21:41:38;;;;;;;7.87;4.20;;;;;;;10.12;100.00;98751.45;4363672;79;21989;-83
2022/10/02 21:48:18;;;;;;;10.60;4.30;;;;;;;10.09;100.00;98760.42;4356801;79;21028;-83
2022/10/02 21:54:50;;;;;;;9.25;4.03;;;;;;;9.99;100.00;98754.83;4370428;79;21625;-82
2022/10/02 22:01:17;;;;;;;10.18;3.65;;;;;;;9.93;100.00;98761.80;4313300;80;21519;-84
2022/10/02 22:07:42;;;;;;;8.53;3.83;;;;;;;9.88;100.00;98750.60;4353389;79;21492;-83
2022/10/02 22:13:47;;;;;;;9.95;3.50;;;;;;;9.88;100.00;98753.94;4365568;79;21954;-83
2022/10/02 22:20:16;;;;;;;8.00;4.25;;;;;;;9.85;100.00;98757.42;4350281;79;21390;-83
2022/10/02 22:26:44;;;;;;;8.43;4.15;;;;;;;9.85;100.00;98757.42;4281971;79;21071;-84
2022/10/02 22:33:10;;;;;;;8.73;3.58;;;;;;;9.89;100.00;98762.34;4252389;81;21522;-83
2022/10/02 22:39:25;;;;;;;7.65;4.60;;;;;;;9.90;100.00;98761.19;4259280;81;22007;-83
2022/10/02 22:45:44;;;;;;;15.43;5.00;;;;;;;9.95;100.00;98770.40;4264309;81;20992;-83
2022/10/02 22:52:00;;;;;;;11.08;4.28;;;;;;;9.98;100.00;98772.38;4272714;81;20998;-84
2022/10/02 22:58:31;;;;;;;11.97;4.47;;;;;;;9.97;100.00;98766.71;4261517;81;21033;-84
2022/10/02 23:05:13;;;;;;;9.70;4.50;;;;;;;9.99;100.00;98772.60;4178049;83;21005;-84
2022/10/02 23:11:20;;;;;;;9.03;4.72;;;;;;;10.01;100.00;98778.46;4218159;83;21495;-85
2022/10/02 23:17:28;;;;;;;8.03;4.97;;;;;;;9.99;100.00;98782.94;4199066;83;21016;-84
2022/10/02 23:23:49;;;;;;;11.93;6.05;;;;;;;10.00;100.00;98784.53;4189112;82;21541;-83
2022/10/02 23:30:03;;;;;;;10.98;5.83;;;;;;;10.01;100.00;98786.09;4093853;85;21066;-83
2022/10/02 23:36:25;;;;;;;19.10;6.25;;;;;;;10.05;100.00;98797.87;4172170;83;21021;-83
2022/10/02 23:42:44;;;;;;;9.95;5.55;;;;;;;10.08;100.00;98801.82;4174743;83;20987;-84
2022/10/02 23:48:45;;;;;;;9.53;5.47;;;;;;;10.07;100.00;98802.39;4171475;83;21059;-83
2022/10/02 23:55:07;;;;;;;12.05;5.58;;;;;;;10.06;100.00;98804.11;4173868;84;21059;-84
